Tarryall, Colorado
Current Conditions -  °F | °C
As of 8:58 AM on Friday 24 Oct 2014 (Local Time) from KAFF Reporting Station
Clear Clear  
Wind Chill: 64°   Ceiling: Unl
Heat Index: 64°   Visibility: 10mi
Dew Point: 23°   Wind: 7mph
Humidity: 21%   Direction: 40°NE
Pressure: 30.27"   Gusts: NA
Location:  39.1071°N, 105.506°W
Report Text: KAFF 241458Z AUTO 04006KT 10SM CLR 18/M05 A3027 RMK AO2 SLP197 T01761052 53011
Loading
Personal Weather Stations






























Interactive Weather Map
Tropical Storm Tracking
New forecast layout! Learn more

10-Day Weather Forecast

Advertisements
Track Severe Weather on mobile